Terminal Aerodrome Forecast
Issued by NWS

Current Version | Previous Version | Text Only | Print | Product List | Glossary On
Versions: 1 2 3 4 5 6 7 8 9 10 11 12 13 14 15 16 17 18 19
046
FTPA31 PHFO 291727
TAFHTO
TAF
PHTO 291727Z 2918/3018 25008KT P6SM VCSH SCT030 BKN060
     FM292100 12010G15KT P6SM VCSH SCT030 BKN045
     FM300600 21006KT P6SM VCSH SCT020 BKN035=

USA.gov is the U.S. government's official web portal to all federal, state and local government web resources and services.